Terminal Aerodrome Forecast
Issued by NWS

Home | Current Version | Previous Version | Graphics & Text | Print | Product List | Glossary On
Versions: 1 2 3 4 5 6 7 8 9 10 11 12 13 14 15 16 17 18 19 20 21 22
594
FTUS43 KICT 192112 AAA
TAFHUT
TAF AMD
KHUT 192112Z 1921/2018 13009KT P6SM OVC009
     FM200200 13005KT 3SM BR OVC003
      TEMPO 2004/2008 1SM -DZ BR OVC002
     FM200800 VRB03KT 1/2SM FG BKN001
     FM201500 14005KT P6SM BKN003=

USA.gov is the U.S. government's official web portal to all federal, state and local government web resources and services.